sensor_id;sensor_type;location;lat;lon;timestamp;P1;durP1;ratioP1;P2;durP2;ratioP2
46355;SDS011;32066;49.474;11.106;2022-11-20T00:01:16;28.38;;;16.42;;
46355;SDS011;32066;49.474;11.106;2022-11-20T00:03:45;25.95;;;16.30;;
46355;SDS011;32066;49.474;11.106;2022-11-20T00:06:13;29.88;;;16.42;;
46355;SDS011;32066;49.474;11.106;2022-11-20T00:08:41;25.02;;;15.60;;
46355;SDS011;32066;49.474;11.106;2022-11-20T00:11:08;27.40;;;16.73;;
46355;SDS011;32066;49.474;11.106;2022-11-20T00:13:38;26.85;;;16.42;;
46355;SDS011;32066;49.474;11.106;2022-11-20T00:16:05;29.02;;;16.63;;
46355;SDS011;32066;49.474;11.106;2022-11-20T00:18:36;27.77;;;16.95;;
46355;SDS011;32066;49.474;11.106;2022-11-20T00:21:04;26.52;;;15.90;;
46355;SDS011;32066;49.474;11.106;2022-11-20T00:23:32;27.10;;;17.05;;
46355;SDS011;32066;49.474;11.106;2022-11-20T00:26:01;28.77;;;16.85;;
46355;SDS011;32066;49.474;11.106;2022-11-20T00:28:29;27.85;;;16.45;;
46355;SDS011;32066;49.474;11.106;2022-11-20T00:31:00;26.83;;;17.30;;
46355;SDS011;32066;49.474;11.106;2022-11-20T00:33:27;26.80;;;16.98;;
46355;SDS011;32066;49.474;11.106;2022-11-20T00:35:59;28.55;;;16.30;;
46355;SDS011;32066;49.474;11.106;2022-11-20T00:38:27;29.83;;;17.58;;
46355;SDS011;32066;49.474;11.106;2022-11-20T00:40:55;29.00;;;17.42;;
46355;SDS011;32066;49.474;11.106;2022-11-20T00:43:23;27.95;;;17.15;;
46355;SDS011;32066;49.474;11.106;2022-11-20T00:45:50;28.50;;;17.70;;
46355;SDS011;32066;49.474;11.106;2022-11-20T00:48:17;27.63;;;17.60;;
46355;SDS011;32066;49.474;11.106;2022-11-20T00:50:44;30.80;;;18.40;;
46355;SDS011;32066;49.474;11.106;2022-11-20T00:53:12;27.80;;;17.58;;
46355;SDS011;32066;49.474;11.106;2022-11-20T00:55:38;31.67;;;18.77;;
46355;SDS011;32066;49.474;11.106;2022-11-20T00:58:06;31.08;;;18.52;;
46355;SDS011;32066;49.474;11.106;2022-11-20T01:00:32;30.45;;;18.85;;
46355;SDS011;32066;49.474;11.106;2022-11-20T01:03:00;30.98;;;18.20;;
46355;SDS011;32066;49.474;11.106;2022-11-20T01:05:26;27.83;;;17.23;;
46355;SDS011;32066;49.474;11.106;2022-11-20T01:07:53;28.10;;;18.05;;
46355;SDS011;32066;49.474;11.106;2022-11-20T01:10:21;29.63;;;18.42;;
46355;SDS011;32066;49.474;11.106;2022-11-20T01:12:48;26.65;;;16.88;;
46355;SDS011;32066;49.474;11.106;2022-11-20T01:15:35;30.00;;;18.02;;
46355;SDS011;32066;49.474;11.106;2022-11-20T01:18:02;29.17;;;17.88;;
46355;SDS011;32066;49.474;11.106;2022-11-20T01:20:28;30.13;;;17.95;;
46355;SDS011;32066;49.474;11.106;2022-11-20T01:22:55;30.95;;;18.42;;
46355;SDS011;32066;49.474;11.106;2022-11-20T01:25:23;30.15;;;17.70;;
46355;SDS011;32066;49.474;11.106;2022-11-20T01:27:50;29.00;;;18.33;;
46355;SDS011;32066;49.474;11.106;2022-11-20T01:30:17;26.60;;;17.13;;
46355;SDS011;32066;49.474;11.106;2022-11-20T01:32:44;29.25;;;17.25;;
46355;SDS011;32066;49.474;11.106;2022-11-20T01:35:11;27.80;;;16.85;;
46355;SDS011;32066;49.474;11.106;2022-11-20T01:37:37;32.67;;;17.77;;
46355;SDS011;32066;49.474;11.106;2022-11-20T01:40:05;27.58;;;16.52;;
46355;SDS011;32066;49.474;11.106;2022-11-20T01:42:33;28.70;;;18.20;;
46355;SDS011;32066;49.474;11.106;2022-11-20T01:48:18;30.08;;;17.75;;
46355;SDS011;32066;49.474;11.106;2022-11-20T01:50:48;29.10;;;17.90;;
46355;SDS011;32066;49.474;11.106;2022-11-20T01:53:17;29.70;;;18.30;;
46355;SDS011;32066;49.474;11.106;2022-11-20T01:55:48;31.02;;;18.63;;
46355;SDS011;32066;49.474;11.106;2022-11-20T01:58:19;29.02;;;17.75;;
46355;SDS011;32066;49.474;11.106;2022-11-20T02:00:48;32.13;;;18.92;;
46355;SDS011;32066;49.474;11.106;2022-11-20T02:03:15;33.38;;;18.50;;
46355;SDS011;32066;49.474;11.106;2022-11-20T02:05:46;31.17;;;18.92;;
46355;SDS011;32066;49.474;11.106;2022-11-20T02:08:17;31.27;;;18.48;;
46355;SDS011;32066;49.474;11.106;2022-11-20T02:10:45;33.08;;;19.13;;
46355;SDS011;32066;49.474;11.106;2022-11-20T02:13:12;32.60;;;19.70;;
46355;SDS011;32066;49.474;11.106;2022-11-20T02:15:57;33.05;;;19.05;;
46355;SDS011;32066;49.474;11.106;2022-11-20T02:18:24;31.15;;;18.02;;
46355;SDS011;32066;49.474;11.106;2022-11-20T02:20:53;30.38;;;17.88;;
46355;SDS011;32066;49.474;11.106;2022-11-20T02:23:26;30.38;;;17.90;;
46355;SDS011;32066;49.474;11.106;2022-11-20T02:26:00;30.00;;;17.65;;
46355;SDS011;32066;49.474;11.106;2022-11-20T02:28:30;31.10;;;19.35;;
46355;SDS011;32066;49.474;11.106;2022-11-20T02:30:58;33.92;;;19.77;;
46355;SDS011;32066;49.474;11.106;2022-11-20T02:33:25;29.75;;;19.27;;
46355;SDS011;32066;49.474;11.106;2022-11-20T02:35:51;31.90;;;19.55;;
46355;SDS011;32066;49.474;11.106;2022-11-20T02:38:18;35.92;;;20.45;;
46355;SDS011;32066;49.474;11.106;2022-11-20T02:40:46;32.60;;;19.52;;
46355;SDS011;32066;49.474;11.106;2022-11-20T02:43:15;33.67;;;19.08;;
46355;SDS011;32066;49.474;11.106;2022-11-20T02:45:42;34.75;;;20.02;;
46355;SDS011;32066;49.474;11.106;2022-11-20T02:48:09;36.50;;;20.52;;
46355;SDS011;32066;49.474;11.106;2022-11-20T02:50:36;32.97;;;19.05;;
46355;SDS011;32066;49.474;11.106;2022-11-20T02:53:04;32.78;;;18.63;;
46355;SDS011;32066;49.474;11.106;2022-11-20T02:55:31;32.08;;;19.58;;
46355;SDS011;32066;49.474;11.106;2022-11-20T02:57:58;29.90;;;18.52;;
46355;SDS011;32066;49.474;11.106;2022-11-20T03:00:26;31.42;;;18.75;;
46355;SDS011;32066;49.474;11.106;2022-11-20T03:02:53;30.10;;;18.05;;
46355;SDS011;32066;49.474;11.106;2022-11-20T03:05:20;35.95;;;20.45;;
46355;SDS011;32066;49.474;11.106;2022-11-20T03:07:47;30.88;;;18.05;;
46355;SDS011;32066;49.474;11.106;2022-11-20T03:10:14;32.20;;;18.83;;
46355;SDS011;32066;49.474;11.106;2022-11-20T03:12:40;31.00;;;18.10;;
46355;SDS011;32066;49.474;11.106;2022-11-20T03:15:08;31.30;;;18.05;;
46355;SDS011;32066;49.474;11.106;2022-11-20T03:17:36;33.28;;;18.67;;
46355;SDS011;32066;49.474;11.106;2022-11-20T03:20:04;30.63;;;19.38;;
46355;SDS011;32066;49.474;11.106;2022-11-20T03:22:31;30.85;;;18.65;;
46355;SDS011;32066;49.474;11.106;2022-11-20T03:24:58;28.33;;;17.02;;
46355;SDS011;32066;49.474;11.106;2022-11-20T03:27:25;30.67;;;18.17;;
46355;SDS011;32066;49.474;11.106;2022-11-20T03:29:52;28.27;;;17.33;;
46355;SDS011;32066;49.474;11.106;2022-11-20T03:32:18;27.85;;;17.08;;
46355;SDS011;32066;49.474;11.106;2022-11-20T03:34:46;27.70;;;17.17;;
46355;SDS011;32066;49.474;11.106;2022-11-20T03:37:13;30.45;;;18.30;;
46355;SDS011;32066;49.474;11.106;2022-11-20T03:39:40;30.05;;;16.98;;
46355;SDS011;32066;49.474;11.106;2022-11-20T03:42:07;26.95;;;16.17;;
46355;SDS011;32066;49.474;11.106;2022-11-20T03:44:55;27.08;;;15.80;;
46355;SDS011;32066;49.474;11.106;2022-11-20T03:47:22;26.10;;;15.82;;
46355;SDS011;32066;49.474;11.106;2022-11-20T03:49:50;27.98;;;16.67;;
46355;SDS011;32066;49.474;11.106;2022-11-20T03:52:17;28.13;;;17.08;;
46355;SDS011;32066;49.474;11.106;2022-11-20T03:54:44;29.23;;;17.33;;
46355;SDS011;32066;49.474;11.106;2022-11-20T03:57:11;26.42;;;16.13;;
46355;SDS011;32066;49.474;11.106;2022-11-20T03:59:37;27.40;;;16.48;;
46355;SDS011;32066;49.474;11.106;2022-11-20T04:02:04;27.75;;;16.33;;
46355;SDS011;32066;49.474;11.106;2022-11-20T04:04:31;26.85;;;16.50;;
46355;SDS011;32066;49.474;11.106;2022-11-20T04:06:59;26.35;;;16.50;;
46355;SDS011;32066;49.474;11.106;2022-11-20T04:09:26;27.67;;;17.00;;
46355;SDS011;32066;49.474;11.106;2022-11-20T04:11:53;26.95;;;16.27;;
46355;SDS011;32066;49.474;11.106;2022-11-20T04:14:19;30.05;;;17.60;;
46355;SDS011;32066;49.474;11.106;2022-11-20T04:16:46;27.65;;;16.17;;
46355;SDS011;32066;49.474;11.106;2022-11-20T04:19:13;29.00;;;16.80;;
46355;SDS011;32066;49.474;11.106;2022-11-20T04:21:41;29.15;;;16.63;;
46355;SDS011;32066;49.474;11.106;2022-11-20T04:24:10;26.85;;;16.27;;
46355;SDS011;32066;49.474;11.106;2022-11-20T04:26:36;26.10;;;16.52;;
46355;SDS011;32066;49.474;11.106;2022-11-20T04:29:04;27.55;;;16.55;;
46355;SDS011;32066;49.474;11.106;2022-11-20T04:31:31;28.77;;;16.63;;
46355;SDS011;32066;49.474;11.106;2022-11-20T04:33:59;27.45;;;16.15;;
46355;SDS011;32066;49.474;11.106;2022-11-20T04:36:27;29.63;;;16.67;;
46355;SDS011;32066;49.474;11.106;2022-11-20T04:38:56;25.85;;;15.65;;
46355;SDS011;32066;49.474;11.106;2022-11-20T04:41:25;25.65;;;16.02;;
46355;SDS011;32066;49.474;11.106;2022-11-20T04:43:54;26.42;;;16.00;;
46355;SDS011;32066;49.474;11.106;2022-11-20T04:46:24;28.63;;;16.98;;
46355;SDS011;32066;49.474;11.106;2022-11-20T04:48:52;25.90;;;16.13;;
46355;SDS011;32066;49.474;11.106;2022-11-20T04:51:19;26.38;;;15.88;;
46355;SDS011;32066;49.474;11.106;2022-11-20T04:53:46;26.20;;;16.15;;
46355;SDS011;32066;49.474;11.106;2022-11-20T04:56:14;25.52;;;15.68;;
46355;SDS011;32066;49.474;11.106;2022-11-20T04:58:42;23.98;;;15.23;;
46355;SDS011;32066;49.474;11.106;2022-11-20T05:01:10;26.77;;;16.63;;
46355;SDS011;32066;49.474;11.106;2022-11-20T05:03:38;27.42;;;16.25;;
46355;SDS011;32066;49.474;11.106;2022-11-20T05:06:05;26.30;;;16.00;;
46355;SDS011;32066;49.474;11.106;2022-11-20T05:08:33;26.67;;;15.82;;
46355;SDS011;32066;49.474;11.106;2022-11-20T05:11:01;25.75;;;15.82;;
46355;SDS011;32066;49.474;11.106;2022-11-20T05:13:29;25.80;;;15.80;;
46355;SDS011;32066;49.474;11.106;2022-11-20T05:16:02;26.02;;;16.48;;
46355;SDS011;32066;49.474;11.106;2022-11-20T05:18:29;25.52;;;15.85;;
46355;SDS011;32066;49.474;11.106;2022-11-20T05:20:56;27.05;;;17.20;;
46355;SDS011;32066;49.474;11.106;2022-11-20T05:23:23;27.42;;;16.45;;
46355;SDS011;32066;49.474;11.106;2022-11-20T05:25:51;26.42;;;16.15;;
46355;SDS011;32066;49.474;11.106;2022-11-20T05:28:18;25.70;;;16.23;;
46355;SDS011;32066;49.474;11.106;2022-11-20T05:30:46;27.63;;;15.73;;
46355;SDS011;32066;49.474;11.106;2022-11-20T05:33:14;25.23;;;15.30;;
46355;SDS011;32066;49.474;11.106;2022-11-20T05:35:41;25.25;;;15.43;;
46355;SDS011;32066;49.474;11.106;2022-11-20T05:38:08;26.38;;;15.80;;
46355;SDS011;32066;49.474;11.106;2022-11-20T05:40:35;27.58;;;16.55;;
46355;SDS011;32066;49.474;11.106;2022-11-20T05:43:02;25.33;;;15.68;;
46355;SDS011;32066;49.474;11.106;2022-11-20T05:45:29;26.45;;;15.98;;
46355;SDS011;32066;49.474;11.106;2022-11-20T05:47:57;24.35;;;15.10;;
46355;SDS011;32066;49.474;11.106;2022-11-20T05:50:26;26.27;;;15.25;;
46355;SDS011;32066;49.474;11.106;2022-11-20T05:52:53;25.02;;;14.77;;
46355;SDS011;32066;49.474;11.106;2022-11-20T05:55:20;25.45;;;15.00;;
46355;SDS011;32066;49.474;11.106;2022-11-20T05:57:47;25.98;;;15.23;;
46355;SDS011;32066;49.474;11.106;2022-11-20T06:00:14;24.45;;;14.55;;
46355;SDS011;32066;49.474;11.106;2022-11-20T06:02:41;24.92;;;15.23;;
46355;SDS011;32066;49.474;11.106;2022-11-20T06:05:08;26.25;;;15.30;;
46355;SDS011;32066;49.474;11.106;2022-11-20T06:07:36;24.33;;;15.23;;
46355;SDS011;32066;49.474;11.106;2022-11-20T06:10:03;24.45;;;15.00;;
46355;SDS011;32066;49.474;11.106;2022-11-20T06:12:31;25.10;;;15.13;;
46355;SDS011;32066;49.474;11.106;2022-11-20T06:14:58;23.20;;;14.07;;
46355;SDS011;32066;49.474;11.106;2022-11-20T06:17:25;23.33;;;14.15;;
46355;SDS011;32066;49.474;11.106;2022-11-20T06:19:52;23.88;;;14.38;;
46355;SDS011;32066;49.474;11.106;2022-11-20T06:22:19;23.88;;;14.25;;
46355;SDS011;32066;49.474;11.106;2022-11-20T06:24:47;23.75;;;14.68;;
46355;SDS011;32066;49.474;11.106;2022-11-20T06:27:14;25.17;;;15.13;;
46355;SDS011;32066;49.474;11.106;2022-11-20T06:29:41;25.90;;;15.55;;
46355;SDS011;32066;49.474;11.106;2022-11-20T06:32:08;23.58;;;13.93;;
46355;SDS011;32066;49.474;11.106;2022-11-20T06:34:35;24.67;;;15.07;;
46355;SDS011;32066;49.474;11.106;2022-11-20T06:37:02;25.00;;;14.77;;
46355;SDS011;32066;49.474;11.106;2022-11-20T06:39:29;23.88;;;14.45;;
46355;SDS011;32066;49.474;11.106;2022-11-20T06:41:57;22.92;;;13.60;;
46355;SDS011;32066;49.474;11.106;2022-11-20T06:44:24;24.75;;;14.15;;
46355;SDS011;32066;49.474;11.106;2022-11-20T06:46:51;25.45;;;14.30;;
46355;SDS011;32066;49.474;11.106;2022-11-20T06:49:17;23.65;;;13.77;;
46355;SDS011;32066;49.474;11.106;2022-11-20T06:51:44;24.10;;;13.98;;
46355;SDS011;32066;49.474;11.106;2022-11-20T06:54:11;22.30;;;13.10;;
46355;SDS011;32066;49.474;11.106;2022-11-20T06:56:38;24.02;;;13.95;;
46355;SDS011;32066;49.474;11.106;2022-11-20T06:59:06;22.75;;;13.85;;
46355;SDS011;32066;49.474;11.106;2022-11-20T07:01:33;23.45;;;13.88;;
46355;SDS011;32066;49.474;11.106;2022-11-20T07:04:00;23.92;;;14.77;;
46355;SDS011;32066;49.474;11.106;2022-11-20T07:06:28;26.27;;;15.48;;
46355;SDS011;32066;49.474;11.106;2022-11-20T07:08:54;22.85;;;13.32;;
46355;SDS011;32066;49.474;11.106;2022-11-20T07:11:22;21.92;;;14.13;;
46355;SDS011;32066;49.474;11.106;2022-11-20T07:13:49;27.08;;;15.57;;
46355;SDS011;32066;49.474;11.106;2022-11-20T07:16:17;22.95;;;13.45;;
46355;SDS011;32066;49.474;11.106;2022-11-20T07:18:44;23.65;;;14.05;;
46355;SDS011;32066;49.474;11.106;2022-11-20T07:21:10;23.40;;;14.02;;
46355;SDS011;32066;49.474;11.106;2022-11-20T07:23:37;22.50;;;14.88;;
46355;SDS011;32066;49.474;11.106;2022-11-20T07:26:04;24.52;;;15.25;;
46355;SDS011;32066;49.474;11.106;2022-11-20T07:28:32;28.63;;;15.65;;
46355;SDS011;32066;49.474;11.106;2022-11-20T07:30:59;25.52;;;14.82;;
46355;SDS011;32066;49.474;11.106;2022-11-20T07:33:28;25.33;;;15.45;;
46355;SDS011;32066;49.474;11.106;2022-11-20T07:35:55;24.67;;;14.85;;
46355;SDS011;32066;49.474;11.106;2022-11-20T07:38:24;23.83;;;14.57;;
46355;SDS011;32066;49.474;11.106;2022-11-20T07:40:53;25.42;;;14.82;;
46355;SDS011;32066;49.474;11.106;2022-11-20T07:43:20;24.48;;;14.95;;
46355;SDS011;32066;49.474;11.106;2022-11-20T07:45:46;24.98;;;14.80;;
46355;SDS011;32066;49.474;11.106;2022-11-20T07:48:13;26.92;;;15.27;;
46355;SDS011;32066;49.474;11.106;2022-11-20T07:50:41;27.92;;;15.02;;
46355;SDS011;32066;49.474;11.106;2022-11-20T07:53:08;22.73;;;14.50;;
46355;SDS011;32066;49.474;11.106;2022-11-20T07:55:35;24.05;;;15.25;;
46355;SDS011;32066;49.474;11.106;2022-11-20T07:58:02;25.80;;;14.38;;
46355;SDS011;32066;49.474;11.106;2022-11-20T08:00:28;23.08;;;14.48;;
46355;SDS011;32066;49.474;11.106;2022-11-20T08:02:55;24.38;;;14.98;;
46355;SDS011;32066;49.474;11.106;2022-11-20T08:05:22;23.50;;;14.15;;
46355;SDS011;32066;49.474;11.106;2022-11-20T08:07:50;24.02;;;14.98;;
46355;SDS011;32066;49.474;11.106;2022-11-20T08:10:17;26.60;;;15.18;;
46355;SDS011;32066;49.474;11.106;2022-11-20T08:12:44;25.75;;;15.25;;
46355;SDS011;32066;49.474;11.106;2022-11-20T08:15:29;26.45;;;15.60;;
46355;SDS011;32066;49.474;11.106;2022-11-20T08:18:03;26.38;;;15.02;;
46355;SDS011;32066;49.474;11.106;2022-11-20T08:20:31;26.77;;;15.48;;
46355;SDS011;32066;49.474;11.106;2022-11-20T08:23:00;27.25;;;15.57;;
46355;SDS011;32066;49.474;11.106;2022-11-20T08:25:28;25.38;;;16.00;;
46355;SDS011;32066;49.474;11.106;2022-11-20T08:28:00;23.70;;;14.57;;
46355;SDS011;32066;49.474;11.106;2022-11-20T08:30:28;23.15;;;14.88;;
46355;SDS011;32066;49.474;11.106;2022-11-20T08:33:00;24.58;;;14.70;;
46355;SDS011;32066;49.474;11.106;2022-11-20T08:35:27;26.60;;;15.77;;
46355;SDS011;32066;49.474;11.106;2022-11-20T08:37:54;25.70;;;16.98;;
46355;SDS011;32066;49.474;11.106;2022-11-20T08:40:22;25.50;;;16.08;;
46355;SDS011;32066;49.474;11.106;2022-11-20T08:42:50;25.60;;;15.50;;
46355;SDS011;32066;49.474;11.106;2022-11-20T08:45:17;22.52;;;14.23;;
46355;SDS011;32066;49.474;11.106;2022-11-20T08:47:45;24.23;;;14.18;;
46355;SDS011;32066;49.474;11.106;2022-11-20T08:50:12;26.75;;;15.27;;
46355;SDS011;32066;49.474;11.106;2022-11-20T08:52:41;26.13;;;15.20;;
46355;SDS011;32066;49.474;11.106;2022-11-20T08:55:08;26.05;;;15.80;;
46355;SDS011;32066;49.474;11.106;2022-11-20T08:57:37;25.27;;;15.10;;
46355;SDS011;32066;49.474;11.106;2022-11-20T09:00:05;23.48;;;15.02;;
46355;SDS011;32066;49.474;11.106;2022-11-20T09:02:33;22.63;;;15.00;;
46355;SDS011;32066;49.474;11.106;2022-11-20T09:05:00;25.63;;;14.75;;
46355;SDS011;32066;49.474;11.106;2022-11-20T09:07:28;24.80;;;14.57;;
46355;SDS011;32066;49.474;11.106;2022-11-20T09:09:55;25.00;;;16.27;;
46355;SDS011;32066;49.474;11.106;2022-11-20T09:12:22;25.38;;;15.50;;
46355;SDS011;32066;49.474;11.106;2022-11-20T09:14:50;26.10;;;16.38;;
46355;SDS011;32066;49.474;11.106;2022-11-20T09:17:17;24.95;;;16.00;;
46355;SDS011;32066;49.474;11.106;2022-11-20T09:19:45;23.50;;;14.75;;
46355;SDS011;32066;49.474;11.106;2022-11-20T09:22:12;25.60;;;15.98;;
46355;SDS011;32066;49.474;11.106;2022-11-20T09:24:39;23.90;;;15.50;;
46355;SDS011;32066;49.474;11.106;2022-11-20T09:27:05;22.95;;;14.82;;
46355;SDS011;32066;49.474;11.106;2022-11-20T09:29:32;22.60;;;14.00;;
46355;SDS011;32066;49.474;11.106;2022-11-20T09:32:00;20.63;;;12.52;;
46355;SDS011;32066;49.474;11.106;2022-11-20T09:34:27;21.85;;;12.68;;
46355;SDS011;32066;49.474;11.106;2022-11-20T09:36:54;20.02;;;12.25;;
46355;SDS011;32066;49.474;11.106;2022-11-20T09:39:21;21.35;;;13.05;;
46355;SDS011;32066;49.474;11.106;2022-11-20T09:41:52;26.45;;;16.02;;
46355;SDS011;32066;49.474;11.106;2022-11-20T09:44:32;30.15;;;18.23;;
46355;SDS011;32066;49.474;11.106;2022-11-20T09:47:15;34.50;;;21.10;;
46355;SDS011;32066;49.474;11.106;2022-11-20T09:49:53;31.02;;;19.35;;
46355;SDS011;32066;49.474;11.106;2022-11-20T09:52:32;26.17;;;16.42;;
46355;SDS011;32066;49.474;11.106;2022-11-20T09:55:03;25.63;;;15.57;;
46355;SDS011;32066;49.474;11.106;2022-11-20T09:57:37;27.85;;;16.00;;
46355;SDS011;32066;49.474;11.106;2022-11-20T10:00:09;24.35;;;14.18;;
46355;SDS011;32066;49.474;11.106;2022-11-20T10:02:40;21.23;;;13.68;;
46355;SDS011;32066;49.474;11.106;2022-11-20T10:05:12;21.50;;;13.25;;
46355;SDS011;32066;49.474;11.106;2022-11-20T10:07:46;20.38;;;12.70;;
46355;SDS011;32066;49.474;11.106;2022-11-20T10:10:21;19.70;;;11.57;;
46355;SDS011;32066;49.474;11.106;2022-11-20T10:13:00;18.58;;;11.13;;
46355;SDS011;32066;49.474;11.106;2022-11-20T10:15:41;20.45;;;12.27;;
46355;SDS011;32066;49.474;11.106;2022-11-20T10:18:26;19.50;;;12.20;;
46355;SDS011;32066;49.474;11.106;2022-11-20T10:21:09;20.67;;;12.05;;
46355;SDS011;32066;49.474;11.106;2022-11-20T10:26:52;20.48;;;12.73;;
46355;SDS011;32066;49.474;11.106;2022-11-20T10:29:32;21.33;;;13.23;;
46355;SDS011;32066;49.474;11.106;2022-11-20T10:32:00;20.20;;;12.52;;
46355;SDS011;32066;49.474;11.106;2022-11-20T10:34:31;22.73;;;13.70;;
46355;SDS011;32066;49.474;11.106;2022-11-20T10:37:09;22.02;;;14.10;;
46355;SDS011;32066;49.474;11.106;2022-11-20T10:39:40;24.17;;;14.45;;
46355;SDS011;32066;49.474;11.106;2022-11-20T10:42:14;33.65;;;15.50;;
46355;SDS011;32066;49.474;11.106;2022-11-20T10:44:47;21.35;;;12.93;;
46355;SDS011;32066;49.474;11.106;2022-11-20T10:47:28;22.38;;;14.40;;
46355;SDS011;32066;49.474;11.106;2022-11-20T10:50:02;22.15;;;13.90;;
46355;SDS011;32066;49.474;11.106;2022-11-20T10:52:32;20.90;;;13.85;;
46355;SDS011;32066;49.474;11.106;2022-11-20T10:55:11;23.95;;;13.95;;
46355;SDS011;32066;49.474;11.106;2022-11-20T10:57:51;23.08;;;15.02;;
46355;SDS011;32066;49.474;11.106;2022-11-20T11:00:20;22.15;;;14.43;;
46355;SDS011;32066;49.474;11.106;2022-11-20T11:02:48;21.52;;;14.13;;
46355;SDS011;32066;49.474;11.106;2022-11-20T11:05:33;21.98;;;13.65;;
46355;SDS011;32066;49.474;11.106;2022-11-20T11:08:05;23.92;;;15.38;;
46355;SDS011;32066;49.474;11.106;2022-11-20T11:10:39;22.48;;;13.63;;
46355;SDS011;32066;49.474;11.106;2022-11-20T11:13:19;23.38;;;14.00;;
46355;SDS011;32066;49.474;11.106;2022-11-20T11:15:46;21.45;;;13.35;;
46355;SDS011;32066;49.474;11.106;2022-11-20T11:18:22;23.08;;;14.32;;
46355;SDS011;32066;49.474;11.106;2022-11-20T11:20:51;23.58;;;14.23;;
46355;SDS011;32066;49.474;11.106;2022-11-20T11:23:28;20.65;;;13.43;;
46355;SDS011;32066;49.474;11.106;2022-11-20T11:25:58;21.10;;;13.48;;
46355;SDS011;32066;49.474;11.106;2022-11-20T11:28:26;26.08;;;15.95;;
46355;SDS011;32066;49.474;11.106;2022-11-20T11:30:54;23.52;;;14.52;;
46355;SDS011;32066;49.474;11.106;2022-11-20T11:33:22;23.17;;;13.73;;
46355;SDS011;32066;49.474;11.106;2022-11-20T11:35:52;19.38;;;12.85;;
46355;SDS011;32066;49.474;11.106;2022-11-20T11:38:23;22.77;;;13.18;;
46355;SDS011;32066;49.474;11.106;2022-11-20T11:40:56;19.77;;;11.77;;
46355;SDS011;32066;49.474;11.106;2022-11-20T11:43:24;22.00;;;11.15;;
46355;SDS011;32066;49.474;11.106;2022-11-20T11:46:23;17.27;;;10.48;;
46355;SDS011;32066;49.474;11.106;2022-11-20T11:48:57;14.90;;;9.18;;
46355;SDS011;32066;49.474;11.106;2022-11-20T11:51:27;15.75;;;9.07;;
46355;SDS011;32066;49.474;11.106;2022-11-20T11:53:59;14.65;;;8.55;;
46355;SDS011;32066;49.474;11.106;2022-11-20T11:56:29;15.38;;;9.05;;
46355;SDS011;32066;49.474;11.106;2022-11-20T11:59:00;14.63;;;8.85;;
46355;SDS011;32066;49.474;11.106;2022-11-20T12:01:33;14.20;;;8.52;;
46355;SDS011;32066;49.474;11.106;2022-11-20T12:04:08;12.88;;;8.18;;
46355;SDS011;32066;49.474;11.106;2022-11-20T12:06:42;12.73;;;8.35;;
46355;SDS011;32066;49.474;11.106;2022-11-20T12:09:11;12.35;;;7.20;;
46355;SDS011;32066;49.474;11.106;2022-11-20T12:11:41;12.18;;;7.20;;
46355;SDS011;32066;49.474;11.106;2022-11-20T12:14:14;12.65;;;7.68;;
46355;SDS011;32066;49.474;11.106;2022-11-20T12:16:49;12.30;;;8.20;;
46355;SDS011;32066;49.474;11.106;2022-11-20T12:19:18;11.57;;;7.65;;
46355;SDS011;32066;49.474;11.106;2022-11-20T12:21:49;12.77;;;8.77;;
46355;SDS011;32066;49.474;11.106;2022-11-20T12:24:30;15.88;;;9.52;;
46355;SDS011;32066;49.474;11.106;2022-11-20T12:27:08;15.45;;;9.18;;
46355;SDS011;32066;49.474;11.106;2022-11-20T12:29:53;16.58;;;9.57;;
46355;SDS011;32066;49.474;11.106;2022-11-20T12:32:31;13.30;;;8.20;;
46355;SDS011;32066;49.474;11.106;2022-11-20T12:35:19;13.95;;;8.75;;
46355;SDS011;32066;49.474;11.106;2022-11-20T12:38:07;13.18;;;9.20;;
46355;SDS011;32066;49.474;11.106;2022-11-20T12:40:47;13.90;;;8.73;;
46355;SDS011;32066;49.474;11.106;2022-11-20T12:43:26;12.82;;;8.23;;
46355;SDS011;32066;49.474;11.106;2022-11-20T12:46:24;13.82;;;8.75;;
46355;SDS011;32066;49.474;11.106;2022-11-20T12:49:03;14.15;;;8.60;;
46355;SDS011;32066;49.474;11.106;2022-11-20T12:51:57;14.30;;;9.07;;
46355;SDS011;32066;49.474;11.106;2022-11-20T12:54:36;13.55;;;8.88;;
46355;SDS011;32066;49.474;11.106;2022-11-20T12:57:21;11.43;;;7.28;;
46355;SDS011;32066;49.474;11.106;2022-11-20T13:00:00;11.30;;;7.50;;
46355;SDS011;32066;49.474;11.106;2022-11-20T13:02:35;13.38;;;8.43;;
46355;SDS011;32066;49.474;11.106;2022-11-20T13:05:18;12.45;;;8.65;;
46355;SDS011;32066;49.474;11.106;2022-11-20T13:07:48;12.00;;;7.70;;
46355;SDS011;32066;49.474;11.106;2022-11-20T13:10:21;16.05;;;8.90;;
46355;SDS011;32066;49.474;11.106;2022-11-20T13:12:56;13.98;;;9.23;;
46355;SDS011;32066;49.474;11.106;2022-11-20T13:15:32;13.88;;;8.60;;
46355;SDS011;32066;49.474;11.106;2022-11-20T13:18:08;12.90;;;8.32;;
46355;SDS011;32066;49.474;11.106;2022-11-20T13:20:40;13.65;;;8.75;;
46355;SDS011;32066;49.474;11.106;2022-11-20T13:23:08;14.77;;;9.23;;
46355;SDS011;32066;49.474;11.106;2022-11-20T13:25:37;15.25;;;9.93;;
46355;SDS011;32066;49.474;11.106;2022-11-20T13:30:54;15.55;;;10.07;;
46355;SDS011;32066;49.474;11.106;2022-11-20T13:33:22;15.70;;;10.23;;
46355;SDS011;32066;49.474;11.106;2022-11-20T13:35:55;14.98;;;9.15;;
46355;SDS011;32066;49.474;11.106;2022-11-20T13:38:23;15.95;;;10.25;;
46355;SDS011;32066;49.474;11.106;2022-11-20T13:40:52;16.23;;;9.55;;
46355;SDS011;32066;49.474;11.106;2022-11-20T13:43:27;16.15;;;9.93;;
46355;SDS011;32066;49.474;11.106;2022-11-20T13:46:01;15.15;;;9.73;;
46355;SDS011;32066;49.474;11.106;2022-11-20T13:48:30;14.93;;;9.73;;
46355;SDS011;32066;49.474;11.106;2022-11-20T13:51:11;13.90;;;8.80;;
46355;SDS011;32066;49.474;11.106;2022-11-20T13:54:10;13.10;;;8.73;;
46355;SDS011;32066;49.474;11.106;2022-11-20T13:56:54;15.07;;;9.68;;
46355;SDS011;32066;49.474;11.106;2022-11-20T13:59:39;15.73;;;10.50;;
46355;SDS011;32066;49.474;11.106;2022-11-20T14:02:16;15.55;;;10.57;;
46355;SDS011;32066;49.474;11.106;2022-11-20T14:04:45;14.05;;;8.80;;
46355;SDS011;32066;49.474;11.106;2022-11-20T14:07:14;13.00;;;8.68;;
46355;SDS011;32066;49.474;11.106;2022-11-20T14:09:49;13.15;;;8.73;;
46355;SDS011;32066;49.474;11.106;2022-11-20T14:12:19;14.00;;;9.00;;
46355;SDS011;32066;49.474;11.106;2022-11-20T14:14:48;13.43;;;8.85;;
46355;SDS011;32066;49.474;11.106;2022-11-20T14:17:17;13.90;;;9.15;;
46355;SDS011;32066;49.474;11.106;2022-11-20T14:19:45;13.98;;;9.18;;
46355;SDS011;32066;49.474;11.106;2022-11-20T14:22:18;14.75;;;9.45;;
46355;SDS011;32066;49.474;11.106;2022-11-20T14:24:46;15.45;;;9.65;;
46355;SDS011;32066;49.474;11.106;2022-11-20T14:27:14;13.13;;;9.05;;
46355;SDS011;32066;49.474;11.106;2022-11-20T14:29:45;14.18;;;9.55;;
46355;SDS011;32066;49.474;11.106;2022-11-20T14:32:14;14.07;;;9.65;;
46355;SDS011;32066;49.474;11.106;2022-11-20T14:34:43;14.55;;;9.80;;
46355;SDS011;32066;49.474;11.106;2022-11-20T14:37:13;14.40;;;9.80;;